createdAt,value
2017-10-27T00:00:08.578Z,0
2017-10-27T00:00:49.062Z,0
2017-10-27T00:01:29.539Z,0
2017-10-27T00:02:10.034Z,0
2017-10-27T00:02:50.522Z,0
2017-10-27T00:03:31.018Z,0
2017-10-27T00:04:11.538Z,0
2017-10-27T00:04:52.023Z,0
2017-10-27T00:05:32.498Z,0
2017-10-27T00:06:12.995Z,0
2017-10-27T00:06:53.467Z,0
2017-10-27T00:07:33.948Z,0
2017-10-27T00:08:14.431Z,0
2017-10-27T00:08:54.919Z,0
2017-10-27T00:09:35.407Z,0
2017-10-27T00:10:15.910Z,0
2017-10-27T00:10:56.408Z,0
2017-10-27T00:11:36.893Z,0
2017-10-27T00:12:17.383Z,0
2017-10-27T00:12:57.874Z,0
2017-10-27T00:13:38.366Z,0
2017-10-27T00:14:18.846Z,0
2017-10-27T00:15:00.342Z,0
2017-10-27T00:15:40.797Z,0
2017-10-27T00:16:21.305Z,0
2017-10-27T00:17:01.781Z,0
2017-10-27T00:17:42.288Z,0
2017-10-27T00:18:22.781Z,0
2017-10-27T00:19:03.302Z,0
2017-10-27T00:19:43.740Z,0
2017-10-27T00:20:24.231Z,0
2017-10-27T00:21:04.717Z,0
2017-10-27T00:21:45.206Z,0
2017-10-27T00:22:25.674Z,0
2017-10-27T00:23:06.155Z,0
2017-10-27T00:23:46.638Z,0
2017-10-27T00:24:27.138Z,0
2017-10-27T00:25:07.632Z,0
2017-10-27T00:25:48.087Z,0
2017-10-27T00:26:28.585Z,0
2017-10-27T00:27:09.070Z,0
2017-10-27T00:27:49.541Z,0
2017-10-27T00:28:30.019Z,0
2017-10-27T00:29:10.507Z,0
2017-10-27T00:29:51.000Z,0
2017-10-27T00:30:31.484Z,0
2017-10-27T00:31:11.955Z,0
2017-10-27T00:31:52.451Z,0
2017-10-27T00:32:32.940Z,0
2017-10-27T00:33:13.433Z,0
2017-10-27T00:33:53.958Z,0
2017-10-27T00:34:34.434Z,0
2017-10-27T00:35:14.912Z,0
2017-10-27T00:35:55.401Z,0
2017-10-27T00:36:35.912Z,0
2017-10-27T00:37:16.385Z,0
2017-10-27T00:37:56.903Z,0
2017-10-27T00:38:37.372Z,0
2017-10-27T00:39:17.840Z,0
2017-10-27T00:39:58.319Z,0
2017-10-27T00:40:38.832Z,0
2017-10-27T00:41:19.305Z,0
2017-10-27T00:41:59.782Z,0
2017-10-27T00:42:40.271Z,0
2017-10-27T00:43:20.721Z,0
2017-10-27T00:44:01.175Z,0
2017-10-27T00:44:41.639Z,0
2017-10-27T00:45:22.090Z,0
2017-10-27T00:47:55.091Z,0
2017-10-27T00:48:35.589Z,0
2017-10-27T00:49:16.074Z,0
2017-10-27T00:49:56.576Z,0
2017-10-27T00:50:37.023Z,0
2017-10-27T00:51:17.507Z,0
2017-10-27T00:51:57.981Z,0
2017-10-27T00:52:38.484Z,0
2017-10-27T00:53:18.971Z,0
2017-10-27T00:53:59.441Z,0
2017-10-27T00:54:39.914Z,0
2017-10-27T00:55:20.421Z,0
2017-10-27T00:56:00.892Z,0
2017-10-27T00:56:41.378Z,0
2017-10-27T00:57:21.848Z,0
2017-10-27T00:58:02.367Z,0
2017-10-27T00:58:42.854Z,0
2017-10-27T00:59:23.364Z,0
2017-10-27T01:00:03.861Z,0
2017-10-27T01:00:44.314Z,0
2017-10-27T01:01:24.789Z,0
2017-10-27T01:02:05.276Z,0
2017-10-27T01:02:45.755Z,0
2017-10-27T01:03:26.243Z,0
2017-10-27T01:04:06.725Z,0
2017-10-27T01:04:47.229Z,0
2017-10-27T01:05:27.714Z,0
2017-10-27T01:06:08.188Z,0
2017-10-27T01:06:48.670Z,0
2017-10-27T01:07:29.162Z,0
2017-10-27T01:08:09.680Z,0
2017-10-27T01:08:50.184Z,0
2017-10-27T01:09:30.665Z,0
2017-10-27T01:10:11.157Z,0
2017-10-27T01:10:51.661Z,0
2017-10-27T01:11:32.181Z,0
2017-10-27T01:12:12.610Z,0
2017-10-27T01:12:53.097Z,0
2017-10-27T01:13:33.582Z,0
2017-10-27T01:14:14.083Z,0
2017-10-27T01:14:54.558Z,0
2017-10-27T01:15:35.057Z,0
2017-10-27T01:16:15.539Z,0
2017-10-27T01:16:56.056Z,0
2017-10-27T01:17:36.501Z,0
2017-10-27T01:18:16.969Z,0
2017-10-27T01:20:34.791Z,0
2017-10-27T01:21:15.295Z,0
2017-10-27T01:21:55.750Z,0
2017-10-27T01:22:36.233Z,0
2017-10-27T01:23:16.726Z,0
2017-10-27T01:23:57.221Z,0
2017-10-27T01:24:37.716Z,0
2017-10-27T01:25:18.205Z,0
2017-10-27T01:25:58.684Z,0
2017-10-27T01:26:39.166Z,0
2017-10-27T01:27:19.679Z,0
2017-10-27T01:28:00.160Z,0
2017-10-27T01:28:40.644Z,0
2017-10-27T01:29:21.140Z,0
2017-10-27T01:30:01.630Z,0
2017-10-27T01:30:42.104Z,0
2017-10-27T01:31:22.571Z,0
2017-10-27T01:32:03.051Z,0
2017-10-27T01:32:43.544Z,0
2017-10-27T01:33:24.055Z,0
2017-10-27T01:35:21.688Z,0
2017-10-27T01:36:02.158Z,0
2017-10-27T01:36:42.648Z,0
2017-10-27T01:37:23.115Z,0
2017-10-27T01:38:03.595Z,0
2017-10-27T01:38:44.093Z,0
2017-10-27T01:39:24.575Z,0
2017-10-27T01:40:05.061Z,0
2017-10-27T01:42:02.744Z,0
2017-10-27T01:42:43.174Z,0
2017-10-27T01:43:23.649Z,0
2017-10-27T01:44:04.150Z,0
2017-10-27T01:44:44.630Z,0
2017-10-27T01:45:25.119Z,0
2017-10-27T01:46:05.612Z,0
2017-10-27T01:46:46.131Z,0
2017-10-27T01:47:26.591Z,0
2017-10-27T01:48:07.053Z,0
2017-10-27T01:52:02.193Z,0
2017-10-27T01:52:42.665Z,0
2017-10-27T01:53:23.150Z,0
2017-10-27T01:54:03.676Z,0
2017-10-27T01:54:44.140Z,0
2017-10-27T01:55:24.622Z,0
2017-10-27T01:56:05.079Z,0
2017-10-27T01:56:45.574Z,0
2017-10-27T01:57:26.049Z,0
2017-10-27T01:58:06.543Z,0
2017-10-27T01:58:47.031Z,0
2017-10-27T01:59:27.496Z,0
2017-10-27T02:00:08.008Z,0
2017-10-27T02:00:48.500Z,0
2017-10-27T02:01:28.966Z,0
2017-10-27T02:02:09.446Z,0
2017-10-27T02:02:49.971Z,0
2017-10-27T02:03:30.418Z,0
2017-10-27T02:04:10.937Z,0
2017-10-27T02:04:51.416Z,0
2017-10-27T02:05:31.898Z,0
2017-10-27T02:06:12.386Z,0
2017-10-27T02:06:52.918Z,0
2017-10-27T02:07:33.374Z,0
2017-10-27T02:08:13.865Z,0
2017-10-27T02:08:54.363Z,0
2017-10-27T02:09:34.840Z,0
2017-10-27T02:10:15.335Z,0
2017-10-27T02:10:55.786Z,0
2017-10-27T02:11:36.257Z,0
2017-10-27T02:12:16.750Z,0
2017-10-27T02:12:57.218Z,0
2017-10-27T02:13:37.675Z,0
2017-10-27T02:14:18.126Z,0
2017-10-27T02:14:58.538Z,0
2017-10-27T02:17:26.477Z,0
2017-10-27T02:18:06.962Z,0
2017-10-27T02:18:47.440Z,0
2017-10-27T02:19:27.912Z,0
2017-10-27T02:20:08.381Z,0
2017-10-27T02:20:48.878Z,0
2017-10-27T02:21:29.373Z,0
2017-10-27T02:22:09.874Z,0
2017-10-27T02:22:50.348Z,0
2017-10-27T02:23:30.838Z,0
2017-10-27T02:24:11.321Z,0
2017-10-27T02:24:51.825Z,0
2017-10-27T02:25:32.304Z,0
2017-10-27T02:26:12.783Z,0
2017-10-27T02:26:53.267Z,0
2017-10-27T02:27:33.762Z,0
2017-10-27T02:28:14.247Z,0
2017-10-27T02:28:54.733Z,0
2017-10-27T02:29:35.227Z,0
2017-10-27T02:30:15.715Z,0
2017-10-27T02:30:56.192Z,0
2017-10-27T02:31:36.673Z,0
2017-10-27T02:32:17.162Z,0
2017-10-27T02:32:57.639Z,0
2017-10-27T02:33:38.122Z,0
2017-10-27T02:34:18.600Z,0
2017-10-27T02:34:59.068Z,0
2017-10-27T02:35:39.574Z,0
2017-10-27T02:36:20.048Z,0
2017-10-27T02:37:00.539Z,0
2017-10-27T02:37:41.042Z,0
2017-10-27T02:38:21.522Z,0
2017-10-27T02:39:02.013Z,0
2017-10-27T02:39:42.499Z,0
2017-10-27T02:40:22.999Z,0
2017-10-27T02:41:03.535Z,0
2017-10-27T02:41:43.989Z,0
2017-10-27T02:42:24.487Z,0
2017-10-27T02:43:04.974Z,0
2017-10-27T02:43:45.471Z,0
2017-10-27T02:44:25.968Z,0
2017-10-27T02:45:06.430Z,0
2017-10-27T02:45:46.916Z,0
2017-10-27T02:46:27.413Z,0
2017-10-27T02:47:07.891Z,0
2017-10-27T02:47:48.386Z,0
2017-10-27T02:48:28.885Z,0
2017-10-27T02:49:09.352Z,0
2017-10-27T02:49:49.860Z,0
2017-10-27T02:50:30.367Z,0
2017-10-27T02:51:10.857Z,0
2017-10-27T02:51:51.374Z,0
2017-10-27T02:52:31.845Z,0
2017-10-27T02:53:12.341Z,0
2017-10-27T02:53:52.817Z,0
2017-10-27T02:54:33.330Z,0
2017-10-27T02:55:13.851Z,0
2017-10-27T02:55:54.272Z,0
2017-10-27T02:56:34.750Z,0
2017-10-27T02:57:15.260Z,0
2017-10-27T02:57:55.774Z,0
2017-10-27T02:58:36.227Z,0
2017-10-27T02:59:16.696Z,0
2017-10-27T02:59:57.186Z,0
2017-10-27T03:00:37.680Z,0
2017-10-27T03:01:18.164Z,0
2017-10-27T03:01:58.682Z,0
2017-10-27T03:02:39.189Z,0
2017-10-27T03:03:19.645Z,0
2017-10-27T03:04:00.149Z,0
2017-10-27T03:04:40.638Z,0
2017-10-27T03:05:21.119Z,0
2017-10-27T03:06:01.615Z,0
2017-10-27T03:06:42.105Z,0
2017-10-27T03:07:22.551Z,0
2017-10-27T03:08:03.031Z,0
2017-10-27T03:08:43.485Z,0
2017-10-27T03:09:23.970Z,0
2017-10-27T03:11:41.784Z,0
2017-10-27T03:12:22.257Z,0
2017-10-27T03:13:02.752Z,0
2017-10-27T03:13:43.251Z,0
2017-10-27T03:14:23.741Z,0
2017-10-27T03:15:04.229Z,0
2017-10-27T03:15:44.726Z,0
2017-10-27T03:16:25.227Z,0
2017-10-27T03:17:05.710Z,0
2017-10-27T03:17:46.220Z,0
2017-10-27T03:18:26.688Z,0
2017-10-27T03:19:07.192Z,0
2017-10-27T03:19:47.644Z,0
2017-10-27T03:20:28.141Z,0
2017-10-27T03:21:08.620Z,0
2017-10-27T03:21:49.125Z,0
2017-10-27T03:22:29.577Z,0
2017-10-27T03:23:10.083Z,0
2017-10-27T03:23:50.562Z,0
2017-10-27T03:24:31.045Z,0
2017-10-27T03:25:11.540Z,0
2017-10-27T03:25:52.036Z,0
2017-10-27T03:26:32.527Z,0
2017-10-27T03:27:13.034Z,0
2017-10-27T03:27:53.513Z,0
2017-10-27T03:28:34.008Z,0
2017-10-27T03:29:14.473Z,0
2017-10-27T03:29:55.681Z,0
2017-10-27T03:30:36.208Z,0
2017-10-27T03:31:16.709Z,0
2017-10-27T03:31:57.184Z,0
2017-10-27T03:32:37.660Z,0
2017-10-27T03:33:18.142Z,0
2017-10-27T03:33:58.643Z,0
2017-10-27T03:34:39.116Z,0
2017-10-27T03:35:19.592Z,0
2017-10-27T03:36:00.078Z,0
2017-10-27T03:36:40.562Z,0
2017-10-27T03:37:21.056Z,0
2017-10-27T03:38:01.542Z,0
2017-10-27T03:38:42.031Z,0
2017-10-27T03:39:22.513Z,0
2017-10-27T03:40:03.025Z,0
2017-10-27T03:40:43.467Z,0
2017-10-27T03:41:23.946Z,0
2017-10-27T03:42:04.435Z,0
2017-10-27T03:42:44.925Z,0
2017-10-27T03:43:25.401Z,0
2017-10-27T03:44:05.881Z,0
2017-10-27T03:44:46.378Z,0
2017-10-27T03:45:26.863Z,0
2017-10-27T03:46:07.344Z,0
2017-10-27T03:46:47.827Z,0
2017-10-27T03:47:28.315Z,0
2017-10-27T03:48:08.796Z,0
2017-10-27T03:48:49.272Z,0
2017-10-27T03:49:29.751Z,0
2017-10-27T03:50:10.244Z,0
2017-10-27T03:50:50.745Z,0
2017-10-27T03:51:31.227Z,0
2017-10-27T03:52:11.683Z,0
2017-10-27T03:54:24.403Z,0
2017-10-27T03:55:04.888Z,0
2017-10-27T03:55:45.367Z,0
2017-10-27T03:56:25.849Z,0
2017-10-27T03:57:06.325Z,0
2017-10-27T03:57:46.810Z,0
2017-10-27T03:58:27.295Z,0
2017-10-27T03:59:07.815Z,0
2017-10-27T03:59:48.289Z,0
2017-10-27T04:00:28.788Z,0
2017-10-27T04:01:09.277Z,0
2017-10-27T04:03:42.253Z,0
2017-10-27T04:04:22.723Z,0
2017-10-27T04:05:03.251Z,0
2017-10-27T04:05:43.733Z,0
2017-10-27T04:06:24.205Z,0
2017-10-27T04:07:04.689Z,0
2017-10-27T04:07:45.184Z,0
2017-10-27T04:08:25.664Z,0
2017-10-27T04:09:06.139Z,0
2017-10-27T04:09:46.634Z,0
2017-10-27T04:10:27.117Z,0
2017-10-27T04:11:07.597Z,0
2017-10-27T04:11:48.086Z,0
2017-10-27T04:12:28.581Z,0
2017-10-27T04:13:09.053Z,0
2017-10-27T04:13:49.549Z,0
2017-10-27T04:14:30.038Z,0
2017-10-27T04:15:10.515Z,0
2017-10-27T04:15:50.992Z,0
2017-10-27T04:16:31.461Z,0
2017-10-27T04:17:11.968Z,0
2017-10-27T04:17:52.452Z,0
2017-10-27T04:18:32.960Z,0
2017-10-27T04:19:13.456Z,0
2017-10-27T04:19:53.945Z,0
2017-10-27T04:20:34.426Z,0
2017-10-27T04:21:14.920Z,0
2017-10-27T04:21:55.420Z,0
2017-10-27T04:22:35.894Z,0
2017-10-27T04:23:16.396Z,0
2017-10-27T04:23:56.883Z,0
2017-10-27T04:24:37.369Z,0
2017-10-27T04:25:17.871Z,0
2017-10-27T04:25:58.337Z,0
2017-10-27T04:26:38.827Z,0
2017-10-27T04:27:19.339Z,0
2017-10-27T04:27:59.839Z,0
2017-10-27T04:28:40.314Z,0
2017-10-27T04:29:20.828Z,0
2017-10-27T04:30:01.304Z,0
2017-10-27T04:30:41.785Z,0
2017-10-27T04:31:22.265Z,0
2017-10-27T04:32:02.735Z,0
2017-10-27T04:32:43.235Z,0
2017-10-27T04:33:23.706Z,0
2017-10-27T04:34:04.195Z,0
2017-10-27T04:34:44.691Z,0
2017-10-27T04:35:25.202Z,0
2017-10-27T04:36:05.648Z,0
2017-10-27T04:36:46.097Z,0
2017-10-27T04:37:26.553Z,0
2017-10-27T04:38:07.062Z,0
2017-10-27T04:38:47.552Z,0
2017-10-27T04:39:28.067Z,0
2017-10-27T04:40:08.610Z,0
2017-10-27T04:40:49.111Z,0
2017-10-27T04:41:29.612Z,0
2017-10-27T04:42:10.102Z,0
2017-10-27T04:42:50.594Z,0
2017-10-27T04:43:31.088Z,0
2017-10-27T04:44:11.545Z,0
2017-10-27T04:46:45.178Z,0
2017-10-27T04:47:25.662Z,0
2017-10-27T04:48:06.143Z,0
2017-10-27T04:48:46.626Z,0
2017-10-27T04:49:27.114Z,0
2017-10-27T04:50:07.596Z,0
2017-10-27T04:50:48.137Z,0
2017-10-27T04:51:28.594Z,0
2017-10-27T04:52:09.079Z,0
2017-10-27T04:52:49.568Z,0
2017-10-27T04:53:30.073Z,0
2017-10-27T04:54:10.543Z,0
2017-10-27T04:54:51.036Z,0
2017-10-27T04:55:31.502Z,0
2017-10-27T04:56:12.014Z,0
2017-10-27T04:56:52.502Z,0
2017-10-27T04:57:32.996Z,0
2017-10-27T04:58:13.487Z,0
2017-10-27T04:58:53.985Z,0
2017-10-27T04:59:34.451Z,0
2017-10-27T05:00:14.916Z,0
2017-10-27T05:00:55.410Z,0
2017-10-27T05:01:35.885Z,0
2017-10-27T05:03:53.694Z,0
2017-10-27T05:04:34.136Z,0
2017-10-27T05:05:14.620Z,0
2017-10-27T05:05:55.095Z,0
2017-10-27T05:06:35.580Z,0
2017-10-27T05:07:16.078Z,0
2017-10-27T05:07:56.560Z,0
2017-10-27T05:08:37.083Z,0
2017-10-27T05:09:17.535Z,0
2017-10-27T05:09:58.009Z,0
2017-10-27T05:10:38.474Z,0
2017-10-27T05:11:18.947Z,0
2017-10-27T05:11:59.415Z,0
2017-10-27T05:12:39.847Z,0
2017-10-27T05:13:20.299Z,0
2017-10-27T05:14:00.770Z,0
2017-10-27T05:14:41.238Z,0
2017-10-27T05:16:53.993Z,0
2017-10-27T05:17:34.493Z,0
2017-10-27T05:18:14.935Z,0
2017-10-27T05:18:55.416Z,0
2017-10-27T05:19:35.894Z,0
2017-10-27T05:20:16.384Z,0
2017-10-27T05:20:56.879Z,0
2017-10-27T05:21:37.369Z,0
2017-10-27T05:22:17.863Z,0
2017-10-27T05:22:58.354Z,0
2017-10-27T05:23:38.832Z,0
2017-10-27T05:24:19.339Z,0
2017-10-27T05:24:59.813Z,0
2017-10-27T05:25:40.301Z,0
2017-10-27T05:26:20.782Z,0
2017-10-27T05:27:01.274Z,0
2017-10-27T05:27:41.716Z,0
2017-10-27T05:28:22.221Z,0
2017-10-27T05:29:02.701Z,0
2017-10-27T05:29:43.217Z,0
2017-10-27T05:30:23.710Z,0
2017-10-27T05:31:04.178Z,0
2017-10-27T05:31:44.643Z,0
2017-10-27T05:32:25.123Z,0
2017-10-27T05:33:05.601Z,0
2017-10-27T05:33:46.081Z,0
2017-10-27T05:35:43.787Z,0
2017-10-27T05:36:24.196Z,0
2017-10-27T05:37:04.673Z,0
2017-10-27T05:37:45.156Z,0
2017-10-27T05:38:25.644Z,0
2017-10-27T05:39:06.145Z,0
2017-10-27T05:39:46.638Z,0
2017-10-27T05:40:27.146Z,0
2017-10-27T05:41:07.613Z,0
2017-10-27T05:41:48.110Z,0
2017-10-27T05:42:28.589Z,0
2017-10-27T05:43:09.068Z,0
2017-10-27T05:43:49.531Z,0
2017-10-27T05:46:22.520Z,0
2017-10-27T05:47:02.997Z,0
2017-10-27T05:47:43.455Z,0
2017-10-27T05:48:23.932Z,0
2017-10-27T05:49:04.401Z,0
2017-10-27T05:49:44.896Z,0
2017-10-27T05:50:25.371Z,4
2017-10-27T05:51:05.848Z,4
2017-10-27T05:51:46.320Z,4
2017-10-27T05:52:26.792Z,4
2017-10-27T05:53:07.272Z,0
2017-10-27T05:53:47.776Z,4
2017-10-27T05:54:28.274Z,8
2017-10-27T05:55:08.729Z,8
2017-10-27T05:55:49.214Z,4
2017-10-27T05:56:29.691Z,4
2017-10-27T05:57:10.173Z,4
2017-10-27T05:57:50.648Z,4
2017-10-27T05:58:31.094Z,4
2017-10-27T05:59:11.563Z,4
2017-10-27T05:59:52.058Z,8
2017-10-27T06:00:32.541Z,4
2017-10-27T06:01:12.999Z,8
2017-10-27T06:01:53.454Z,8
2017-10-27T06:02:33.903Z,8
2017-10-27T06:04:31.638Z,8
2017-10-27T06:05:12.171Z,8
2017-10-27T06:05:52.706Z,4
2017-10-27T06:06:33.212Z,8
2017-10-27T06:07:13.674Z,4
2017-10-27T06:07:54.968Z,4
2017-10-27T06:08:35.419Z,4
2017-10-27T06:09:15.988Z,4
2017-10-27T06:09:56.504Z,4
2017-10-27T06:10:37.025Z,4
2017-10-27T06:11:17.547Z,8
2017-10-27T06:11:58.018Z,12
2017-10-27T06:12:38.490Z,16
2017-10-27T06:13:18.957Z,16
2017-10-27T06:13:59.465Z,20
2017-10-27T06:16:17.276Z,16
2017-10-27T06:16:57.780Z,16
2017-10-27T06:17:38.276Z,16
2017-10-27T06:18:18.765Z,16
2017-10-27T06:18:59.249Z,16
2017-10-27T06:19:39.736Z,20
2017-10-27T06:20:20.209Z,24
2017-10-27T06:21:00.721Z,28
2017-10-27T06:21:41.198Z,36
2017-10-27T06:22:21.672Z,52
2017-10-27T06:23:02.247Z,80
2017-10-27T06:23:42.721Z,108
2017-10-27T06:24:23.201Z,124
2017-10-27T06:25:03.743Z,120
2017-10-27T06:25:44.228Z,100
2017-10-27T06:26:24.740Z,80
2017-10-27T06:28:57.742Z,56
2017-10-27T06:29:38.254Z,60
2017-10-27T06:30:18.753Z,60
2017-10-27T06:30:59.234Z,72
2017-10-27T06:31:39.739Z,96
2017-10-27T06:32:20.229Z,120
2017-10-27T06:33:00.712Z,136
2017-10-27T06:33:41.213Z,152
2017-10-27T06:34:21.697Z,168
2017-10-27T06:35:02.188Z,176
2017-10-27T06:35:42.680Z,196
2017-10-27T06:36:23.176Z,204
2017-10-27T06:37:03.670Z,244
2017-10-27T06:37:44.155Z,276
2017-10-27T06:38:24.631Z,324
2017-10-27T06:39:05.144Z,360
2017-10-27T06:39:45.607Z,376
2017-10-27T06:40:26.067Z,368
2017-10-27T06:41:06.559Z,340
2017-10-27T06:41:47.047Z,304
2017-10-27T06:42:27.539Z,280
2017-10-27T06:43:08.010Z,264
2017-10-27T06:43:48.490Z,252
2017-10-27T06:44:28.986Z,256
2017-10-27T06:45:09.486Z,264
2017-10-27T06:45:49.980Z,264
2017-10-27T06:46:30.455Z,252
2017-10-27T06:47:11.552Z,216
2017-10-27T06:47:52.034Z,180
2017-10-27T06:48:32.523Z,140
2017-10-27T06:49:13.011Z,124
2017-10-27T06:49:53.506Z,104
2017-10-27T06:50:33.987Z,108
2017-10-27T06:51:14.432Z,112
2017-10-27T06:51:54.925Z,124
2017-10-27T06:52:35.431Z,128
2017-10-27T06:53:15.940Z,152
2017-10-27T06:53:56.430Z,176
2017-10-27T06:54:36.881Z,180
2017-10-27T06:55:17.369Z,176
2017-10-27T06:55:57.868Z,156
2017-10-27T06:56:38.366Z,132
2017-10-27T06:57:18.881Z,140
2017-10-27T06:57:59.372Z,172
2017-10-27T06:58:39.930Z,176
2017-10-27T06:59:20.501Z,180
2017-10-27T07:00:01.133Z,168
2017-10-27T07:00:41.706Z,156
2017-10-27T07:01:22.265Z,156
2017-10-27T07:02:02.840Z,152
2017-10-27T07:02:43.352Z,152
2017-10-27T07:03:23.916Z,156
2017-10-27T07:04:04.473Z,168
2017-10-27T07:04:45.044Z,168
2017-10-27T07:05:25.654Z,148
2017-10-27T07:06:06.238Z,140
2017-10-27T07:06:46.794Z,120
2017-10-27T07:07:27.402Z,108
2017-10-27T07:08:07.981Z,112
2017-10-27T07:08:48.528Z,136
2017-10-27T07:09:29.048Z,156
2017-10-27T07:10:09.540Z,164
2017-10-27T07:10:50.029Z,180
2017-10-27T07:11:30.514Z,188
2017-10-27T07:12:11.032Z,204
2017-10-27T07:12:51.533Z,220
2017-10-27T07:13:32.061Z,252
2017-10-27T07:14:12.551Z,288
2017-10-27T07:14:53.032Z,312
2017-10-27T07:15:33.569Z,340
2017-10-27T07:16:14.076Z,348
2017-10-27T07:16:54.608Z,368
2017-10-27T07:17:35.113Z,376
2017-10-27T07:18:15.591Z,376
2017-10-27T07:18:56.075Z,376
2017-10-27T07:19:36.587Z,360
2017-10-27T07:20:17.127Z,364
2017-10-27T07:22:50.264Z,476
2017-10-27T07:23:30.862Z,448
2017-10-27T07:24:11.447Z,408
2017-10-27T07:24:52.010Z,388
2017-10-27T07:25:32.636Z,396
2017-10-27T07:26:13.161Z,448
2017-10-27T07:26:53.730Z,524
2017-10-27T07:27:34.307Z,636
2017-10-27T07:28:14.920Z,776
2017-10-27T07:28:55.492Z,944
2017-10-27T07:29:36.073Z,1052
2017-10-27T07:30:16.707Z,1052
2017-10-27T07:30:57.320Z,1008
2017-10-27T07:31:37.906Z,944
2017-10-27T07:32:18.535Z,896
2017-10-27T07:32:59.143Z,844
2017-10-27T07:33:39.765Z,788
2017-10-27T07:34:20.279Z,736
2017-10-27T07:35:00.863Z,704
2017-10-27T07:35:41.409Z,704
2017-10-27T07:36:22.009Z,732
2017-10-27T07:37:02.625Z,784
2017-10-27T07:37:43.186Z,848
2017-10-27T07:38:23.782Z,900
2017-10-27T07:39:04.291Z,904
2017-10-27T07:41:37.305Z,900
2017-10-27T07:42:17.801Z,916
2017-10-27T07:42:58.296Z,924
2017-10-27T07:43:38.803Z,920
2017-10-27T07:44:19.321Z,912
2017-10-27T07:44:59.792Z,904
2017-10-27T07:45:40.288Z,912
2017-10-27T07:48:13.281Z,852
2017-10-27T07:48:53.758Z,860
2017-10-27T07:49:34.260Z,912
2017-10-27T07:50:14.787Z,964
2017-10-27T07:50:55.286Z,992
2017-10-27T07:51:35.812Z,1008
2017-10-27T07:52:16.293Z,1044
2017-10-27T07:52:56.805Z,1084
2017-10-27T07:53:37.299Z,1072
2017-10-27T07:54:17.811Z,1020
2017-10-27T07:54:58.295Z,1008
2017-10-27T07:55:38.778Z,1032
2017-10-27T07:56:19.285Z,1092
2017-10-27T07:56:59.796Z,1164
2017-10-27T07:57:40.325Z,1244
2017-10-27T07:58:20.778Z,1292
2017-10-27T07:59:01.249Z,1312
2017-10-27T07:59:41.774Z,1304
2017-10-27T08:00:22.257Z,1284
2017-10-27T08:01:02.734Z,1276
2017-10-27T08:01:43.260Z,1284
2017-10-27T08:02:23.752Z,1292
2017-10-27T08:03:04.226Z,1308
2017-10-27T08:03:44.741Z,1296
2017-10-27T08:04:25.232Z,1236
2017-10-27T08:05:05.754Z,1132
2017-10-27T08:05:46.251Z,1048
2017-10-27T08:06:26.712Z,1020
2017-10-27T08:07:07.229Z,1052
2017-10-27T08:07:47.684Z,1164
2017-10-27T08:08:28.244Z,1312
2017-10-27T08:09:08.753Z,1484
2017-10-27T08:09:49.304Z,1620
2017-10-27T08:10:29.835Z,1716
2017-10-27T08:11:10.336Z,1808
2017-10-27T08:11:50.843Z,1884
2017-10-27T08:12:31.344Z,1984
2017-10-27T08:13:11.823Z,2084
2017-10-27T08:13:52.333Z,2160
2017-10-27T08:14:32.812Z,2220
2017-10-27T08:15:13.322Z,2332
2017-10-27T08:15:53.839Z,2524
2017-10-27T08:16:34.350Z,2684
2017-10-27T08:17:14.851Z,2724
2017-10-27T08:17:55.432Z,2688
2017-10-27T08:18:35.942Z,2632
2017-10-27T08:19:16.430Z,2600
2017-10-27T08:19:56.921Z,2604
2017-10-27T08:20:37.443Z,2672
2017-10-27T08:21:17.919Z,2820
2017-10-27T08:21:58.390Z,2996
2017-10-27T08:22:39.026Z,3132
2017-10-27T08:23:19.550Z,3368
2017-10-27T08:24:00.051Z,3848
2017-10-27T08:24:40.578Z,4200
2017-10-27T08:25:21.140Z,4244
2017-10-27T08:26:01.634Z,4008
2017-10-27T08:26:42.144Z,3692
2017-10-27T08:27:22.635Z,3344
2017-10-27T08:28:03.127Z,3192
2017-10-27T08:28:43.580Z,3308
2017-10-27T08:29:24.039Z,3568
2017-10-27T08:30:04.551Z,3660
2017-10-27T08:30:45.041Z,3712
2017-10-27T08:31:25.547Z,3952
2017-10-27T08:32:06.010Z,4276
2017-10-27T08:32:46.570Z,4416
2017-10-27T08:33:27.035Z,4908
2017-10-27T08:34:07.519Z,5464
2017-10-27T08:34:48.106Z,5784
2017-10-27T08:35:28.581Z,5560
2017-10-27T08:36:09.084Z,5240
2017-10-27T08:36:49.560Z,5464
2017-10-27T08:37:30.038Z,5568
2017-10-27T08:38:10.526Z,5632
2017-10-27T08:38:51.022Z,5976
2017-10-27T08:39:31.529Z,5936
2017-10-27T08:40:12.096Z,5500
2017-10-27T08:40:52.579Z,4872
2017-10-27T08:41:33.057Z,4272
2017-10-27T08:42:13.570Z,4104
2017-10-27T08:42:54.057Z,3856
2017-10-27T08:43:34.574Z,3804
2017-10-27T08:44:15.107Z,4092
2017-10-27T08:44:55.605Z,4644
2017-10-27T08:45:36.093Z,4760
2017-10-27T08:46:16.615Z,4896
2017-10-27T08:46:57.673Z,5064
2017-10-27T08:47:38.140Z,5156
2017-10-27T08:49:50.883Z,5496
2017-10-27T08:50:31.364Z,5520
2017-10-27T08:51:11.858Z,5572
2017-10-27T08:51:52.352Z,5000
2017-10-27T08:52:32.873Z,4260
2017-10-27T08:53:13.345Z,3980
2017-10-27T08:53:53.834Z,4028
2017-10-27T08:54:34.309Z,4500
2017-10-27T08:55:14.783Z,5180
2017-10-27T08:55:55.266Z,5516
2017-10-27T08:56:35.760Z,5268
2017-10-27T08:57:16.227Z,4948
2017-10-27T08:57:56.701Z,4720
2017-10-27T08:58:37.145Z,4664
2017-10-27T08:59:17.630Z,4304
2017-10-27T08:59:58.142Z,3984
2017-10-27T09:00:38.621Z,3732
2017-10-27T09:01:19.100Z,3656
2017-10-27T09:01:59.547Z,3740
2017-10-27T09:02:40.058Z,4096
2017-10-27T09:03:20.518Z,4612
2017-10-27T09:04:01.005Z,4852
2017-10-27T09:04:41.484Z,4216
2017-10-27T09:05:21.964Z,4108
2017-10-27T09:07:49.892Z,4496
2017-10-27T09:08:30.371Z,4516
2017-10-27T09:09:10.829Z,4536
2017-10-27T09:09:51.334Z,4540
2017-10-27T09:10:31.831Z,4604
2017-10-27T09:11:12.319Z,4732
2017-10-27T09:11:52.855Z,5004
2017-10-27T09:12:33.366Z,5636
2017-10-27T09:13:13.891Z,6456
2017-10-27T09:13:54.380Z,6880
2017-10-27T09:14:34.822Z,5644
2017-10-27T09:15:15.277Z,5776
2017-10-27T09:15:55.735Z,5380
2017-10-27T09:16:36.231Z,5416
2017-10-27T09:17:16.698Z,5568
2017-10-27T09:17:57.137Z,6000
2017-10-27T09:18:37.562Z,6548
2017-10-27T09:19:18.054Z,7776
2017-10-27T09:19:58.557Z,9172
2017-10-27T09:22:16.434Z,11012
2017-10-27T09:22:56.922Z,9228
2017-10-27T09:23:38.273Z,7220
2017-10-27T09:24:18.753Z,5932
2017-10-27T09:24:59.242Z,5276
2017-10-27T09:27:27.199Z,5996
2017-10-27T09:28:07.689Z,6940
2017-10-27T09:28:48.198Z,7608
2017-10-27T09:29:28.687Z,8616
2017-10-27T09:31:46.493Z,8532
2017-10-27T09:32:26.985Z,8548
2017-10-27T09:33:07.479Z,8592
2017-10-27T09:33:47.940Z,9132
2017-10-27T09:34:28.504Z,9528
2017-10-27T09:35:08.972Z,11588
2017-10-27T09:35:49.479Z,13484
2017-10-27T09:36:29.999Z,14400
2017-10-27T09:37:10.509Z,15588
2017-10-27T09:37:51.003Z,15644
2017-10-27T09:38:31.502Z,16180
2017-10-27T09:39:11.984Z,17600
2017-10-27T09:39:52.467Z,16572
2017-10-27T09:40:32.939Z,14424
2017-10-27T09:41:13.424Z,10800
2017-10-27T09:41:53.924Z,9476
2017-10-27T09:42:34.419Z,8352
2017-10-27T09:43:14.935Z,7508
2017-10-27T09:43:55.438Z,7220
2017-10-27T09:44:35.912Z,7720
2017-10-27T09:45:16.429Z,7756
2017-10-27T09:45:57.002Z,6692
2017-10-27T09:46:37.503Z,6092
2017-10-27T09:47:18.013Z,5880
2017-10-27T09:47:58.504Z,6136
2017-10-27T09:48:38.945Z,6492
2017-10-27T09:49:19.483Z,6504
2017-10-27T09:50:00.048Z,7588
2017-10-27T09:50:40.538Z,8972
2017-10-27T09:51:21.094Z,8792
2017-10-27T09:52:01.628Z,8460
2017-10-27T09:52:42.162Z,8544
2017-10-27T09:53:22.690Z,8308
2017-10-27T09:54:03.249Z,8620
2017-10-27T09:54:43.765Z,7528
2017-10-27T09:55:24.242Z,8516
2017-10-27T09:56:04.736Z,11756
2017-10-27T09:56:45.246Z,11860
2017-10-27T09:57:25.782Z,11520
2017-10-27T09:58:06.267Z,11960
2017-10-27T09:58:46.759Z,9200
2017-10-27T09:59:27.290Z,8816
2017-10-27T10:00:07.783Z,7720
2017-10-27T10:00:48.324Z,8900
2017-10-27T10:01:28.879Z,9912
2017-10-27T10:02:09.427Z,10876
2017-10-27T10:02:49.912Z,11548
2017-10-27T10:03:30.417Z,12784
2017-10-27T10:04:10.935Z,12952
2017-10-27T10:04:51.384Z,12320
2017-10-27T10:05:31.868Z,10660
2017-10-27T10:06:12.359Z,9132
2017-10-27T10:06:52.833Z,7080
2017-10-27T10:07:33.336Z,4332
2017-10-27T10:08:13.870Z,3556
2017-10-27T10:08:54.363Z,2824
2017-10-27T10:09:34.850Z,2824
2017-10-27T10:10:15.386Z,3136
2017-10-27T10:10:55.911Z,3612
2017-10-27T10:11:36.407Z,4584
2017-10-27T10:12:16.897Z,5964
2017-10-27T10:12:57.421Z,6908
2017-10-27T10:15:15.247Z,7920
2017-10-27T10:15:55.725Z,8292
2017-10-27T10:16:36.221Z,9160
2017-10-27T10:17:16.686Z,9792
2017-10-27T10:17:57.194Z,10660
2017-10-27T10:18:37.679Z,9692
2017-10-27T10:19:18.175Z,9332
2017-10-27T10:19:58.667Z,9724
2017-10-27T10:20:39.151Z,9228
2017-10-27T10:21:19.661Z,9892